Time;durP1;ratioP1;P1;durP2;ratioP2;P2;SDS_P1;SDS_P2;PMS_P1;PMS_P2;Temp;Humidity;BMP_temperature;BMP_pressure;BME280_temperature;BME280_humidity;BME280_pressure;Samples;Min_cycle;Max_cycle;Signal;HPM_P1;HPM_P2
2023/05/06 00:02:04;;;;;;;7.65;3.85;;;12.70;99.90;;;;;;5095658;28;20032;-71
2023/05/06 00:04:33;;;;;;;7.97;3.70;;;12.60;99.90;;;;;;5098743;28;20384;-71
2023/05/06 00:06:58;;;;;;;7.65;4.03;;;12.50;99.90;;;;;;5098385;28;20055;-71
2023/05/06 00:09:24;;;;;;;6.38;3.65;;;12.50;99.90;;;;;;5094460;28;20056;-71
2023/05/06 00:11:52;;;;;;;7.95;4.10;;;12.40;99.90;;;;;;5089903;28;20033;-71
2023/05/06 00:14:21;;;;;;;7.95;4.50;;;12.40;99.90;;;;;;5092348;28;20104;-71
2023/05/06 00:16:46;;;;;;;6.40;3.70;;;12.30;99.90;;;;;;5095304;28;20032;-71
2023/05/06 00:19:12;;;;;;;9.90;4.43;;;12.30;99.90;;;;;;5094785;28;20047;-71
2023/05/06 00:21:38;;;;;;;9.07;3.83;;;12.30;99.90;;;;;;5102643;28;20085;-71
2023/05/06 00:24:04;;;;;;;8.50;4.30;;;12.20;99.90;;;;;;5096689;28;20402;-72
2023/05/06 00:26:30;;;;;;;7.40;4.50;;;12.20;99.90;;;;;;5089317;28;20024;-71
2023/05/06 00:29:01;;;;;;;6.68;3.75;;;12.10;99.90;;;;;;5092085;28;20027;-71
2023/05/06 00:31:27;;;;;;;8.10;4.30;;;12.10;99.90;;;;;;5089936;28;20043;-71
2023/05/06 00:33:55;;;;;;;8.30;4.25;;;12.10;99.90;;;;;;5091098;28;20040;-71
2023/05/06 00:36:24;;;;;;;7.10;3.92;;;12.00;99.90;;;;;;5093419;28;22916;-71
2023/05/06 00:38:53;;;;;;;7.15;3.90;;;12.00;99.90;;;;;;5085617;28;20031;-72
2023/05/06 00:41:18;;;;;;;11.50;4.03;;;11.90;99.90;;;;;;5084415;28;20036;-70
2023/05/06 00:43:47;;;;;;;8.40;3.97;;;11.90;99.90;;;;;;5093413;28;20093;-71
2023/05/06 00:46:15;;;;;;;8.45;4.47;;;11.90;99.90;;;;;;5085887;28;20145;-71
2023/05/06 00:48:42;;;;;;;8.45;4.60;;;11.90;99.90;;;;;;5088895;28;20062;-71
2023/05/06 00:51:07;;;;;;;10.43;4.55;;;11.90;99.90;;;;;;5090868;28;20044;-72
2023/05/06 00:53:33;;;;;;;10.55;4.90;;;11.90;99.90;;;;;;5091834;28;20097;-71
2023/05/06 00:55:59;;;;;;;9.90;4.93;;;11.80;99.90;;;;;;5088689;28;20082;-71
2023/05/06 00:58:25;;;;;;;8.95;4.57;;;11.80;99.90;;;;;;5084420;28;20039;-70
2023/05/06 01:00:57;;;;;;;10.30;4.97;;;11.80;99.90;;;;;;5089105;28;20578;-71
2023/05/06 01:03:22;;;;;;;8.40;4.47;;;11.80;99.90;;;;;;5089531;28;20040;-72
2023/05/06 01:06:10;;;;;;;10.75;5.28;;;11.80;99.90;;;;;;5091049;28;20434;-72
2023/05/06 01:09:04;;;;;;;9.40;5.22;;;11.80;99.90;;;;;;5092632;28;20569;-71
2023/05/06 01:11:47;;;;;;;12.75;5.22;;;11.80;99.90;;;;;;5091348;28;20032;-72
2023/05/06 01:14:54;;;;;;;10.15;4.93;;;11.80;99.90;;;;;;5086703;28;20130;-71
2023/05/06 01:17:27;;;;;;;10.25;6.03;;;11.70;99.90;;;;;;5086136;28;20040;-71
2023/05/06 01:19:57;;;;;;;8.93;5.05;;;11.80;99.90;;;;;;5085775;28;20024;-73
2023/05/06 01:22:25;;;;;;;11.23;6.63;;;11.70;99.90;;;;;;5091785;28;20039;-72
2023/05/06 01:24:57;;;;;;;8.50;4.70;;;11.70;99.90;;;;;;5115940;27;20027;-71
2023/05/06 01:27:22;;;;;;;10.32;5.05;;;11.70;99.90;;;;;;5091929;28;20040;-71
2023/05/06 01:29:48;;;;;;;9.75;5.28;;;11.70;99.90;;;;;;5084884;28;20039;-72
2023/05/06 01:32:28;;;;;;;9.93;5.13;;;11.70;99.90;;;;;;5093500;28;20028;-71
2023/05/06 01:35:17;;;;;;;8.02;5.03;;;11.70;99.90;;;;;;5085103;28;20042;-71
2023/05/06 01:38:07;;;;;;;11.30;5.55;;;11.70;99.90;;;;;;5054487;28;20047;-71
2023/05/06 01:40:34;;;;;;;13.40;5.85;;;11.60;99.90;;;;;;5086023;28;20443;-71
2023/05/06 01:43:05;;;;;;;12.02;5.38;;;11.60;99.90;;;;;;5093987;28;20130;-70
2023/05/06 01:45:34;;;;;;;9.15;4.70;;;11.50;99.90;;;;;;5088278;28;20028;-71
2023/05/06 01:48:00;;;;;;;10.85;4.72;;;11.50;99.90;;;;;;5094170;28;20047;-71
2023/05/06 01:50:26;;;;;;;11.30;5.35;;;11.50;99.90;;;;;;5088968;28;20522;-70
2023/05/06 01:52:59;;;;;;;13.63;5.28;;;11.40;99.90;;;;;;5089215;28;20102;-70
2023/05/06 01:55:25;;;;;;;13.52;5.95;;;11.40;99.90;;;;;;5092892;28;20707;-71
2023/05/06 01:57:57;;;;;;;10.93;5.60;;;11.50;99.90;;;;;;5092796;28;20043;-71
2023/05/06 02:00:23;;;;;;;11.82;6.10;;;11.50;99.90;;;;;;5088184;28;20048;-70
2023/05/06 02:02:50;;;;;;;10.68;6.15;;;11.50;99.90;;;;;;5094380;28;20063;-71
2023/05/06 02:05:15;;;;;;;11.23;5.63;;;11.50;99.90;;;;;;5092934;28;20705;-71
2023/05/06 02:07:41;;;;;;;11.27;6.20;;;11.50;99.90;;;;;;5092498;28;20040;-71
2023/05/06 02:10:12;;;;;;;10.93;5.95;;;11.50;99.90;;;;;;5078618;28;20036;-72
2023/05/06 02:12:41;;;;;;;11.00;6.18;;;11.50;99.90;;;;;;5088077;28;20089;-74
2023/05/06 02:15:07;;;;;;;9.32;5.53;;;11.50;99.90;;;;;;5091745;28;20046;-72
2023/05/06 02:17:34;;;;;;;10.07;5.05;;;11.50;99.90;;;;;;5094351;28;20036;-71
2023/05/06 02:20:00;;;;;;;10.00;5.25;;;11.40;99.90;;;;;;5091825;28;20138;-71
2023/05/06 02:22:28;;;;;;;11.15;5.18;;;11.40;99.90;;;;;;5094922;28;20797;-71
2023/05/06 02:24:54;;;;;;;10.60;5.32;;;11.40;99.90;;;;;;5090648;28;20069;-71
2023/05/06 02:27:20;;;;;;;10.98;5.55;;;11.30;99.90;;;;;;5092623;27;20060;-71
2023/05/06 02:29:45;;;;;;;10.57;5.93;;;11.30;99.90;;;;;;5092163;28;20523;-70
2023/05/06 02:32:11;;;;;;;10.73;5.95;;;11.30;99.90;;;;;;5092988;28;20043;-73
2023/05/06 02:34:36;;;;;;;12.27;6.00;;;11.30;99.90;;;;;;5092902;28;20040;-71
2023/05/06 02:37:02;;;;;;;13.85;4.85;;;11.20;99.90;;;;;;5094812;27;20032;-76
2023/05/06 02:39:28;;;;;;;10.13;4.75;;;11.20;99.90;;;;;;5095333;28;20077;-71
2023/05/06 02:41:53;;;;;;;9.30;5.25;;;11.20;99.90;;;;;;5094397;28;20028;-71
2023/05/06 02:44:19;;;;;;;11.93;5.60;;;11.10;99.90;;;;;;5090861;28;20032;-71
2023/05/06 02:46:44;;;;;;;10.43;5.32;;;11.10;99.90;;;;;;5100177;28;20027;-72
2023/05/06 02:49:10;;;;;;;10.50;5.65;;;11.10;99.90;;;;;;5096765;28;20043;-72
2023/05/06 02:51:35;;;;;;;11.82;6.22;;;11.10;99.90;;;;;;5092014;28;20024;-71
2023/05/06 02:54:01;;;;;;;12.35;6.18;;;11.10;99.90;;;;;;5098023;28;20201;-71
2023/05/06 02:56:30;;;;;;;12.77;6.63;;;11.10;99.90;;;;;;5095230;28;20503;-70
2023/05/06 02:58:55;;;;;;;15.85;7.70;;;11.10;99.90;;;;;;5100189;27;20403;-71
2023/05/06 03:01:21;;;;;;;11.60;6.43;;;11.20;99.90;;;;;;5091036;28;20024;-71
2023/05/06 03:03:50;;;;;;;17.25;7.25;;;11.20;99.90;;;;;;5100350;28;20024;-71
2023/05/06 03:06:15;;;;;;;18.20;6.90;;;11.20;99.90;;;;;;5091008;28;20027;-71
2023/05/06 03:08:41;;;;;;;13.25;6.68;;;11.20;99.90;;;;;;5094979;28;20035;-71
2023/05/06 03:11:06;;;;;;;12.68;7.05;;;11.20;99.90;;;;;;5092998;27;20047;-71
2023/05/06 03:13:32;;;;;;;13.95;7.63;;;11.20;99.90;;;;;;5094399;28;20475;-71
2023/05/06 03:16:00;;;;;;;10.98;6.38;;;11.20;99.90;;;;;;5096567;28;20036;-71
2023/05/06 03:18:26;;;;;;;12.23;6.18;;;11.10;99.90;;;;;;5097186;28;20478;-71
2023/05/06 03:20:52;;;;;;;13.20;6.47;;;11.10;99.90;;;;;;5093663;28;20024;-71
2023/05/06 03:23:20;;;;;;;13.30;7.20;;;11.00;99.90;;;;;;5094290;28;20564;-72
2023/05/06 03:25:49;;;;;;;20.05;7.10;;;11.00;99.90;;;;;;5095581;28;20104;-71
2023/05/06 03:28:17;;;;;;;14.80;6.78;;;11.00;99.90;;;;;;5087992;28;20484;-71
2023/05/06 03:30:43;;;;;;;9.68;5.75;;;11.00;99.90;;;;;;5089098;28;20063;-71
2023/05/06 03:33:08;;;;;;;13.07;7.10;;;10.90;99.90;;;;;;5093465;27;20480;-72
2023/05/06 03:35:37;;;;;;;15.95;7.68;;;10.90;99.90;;;;;;5096981;27;20032;-71
2023/05/06 03:38:02;;;;;;;15.65;8.18;;;10.90;99.90;;;;;;5096053;28;20785;-71
2023/05/06 03:40:28;;;;;;;20.00;8.32;;;10.90;99.90;;;;;;5092828;28;20028;-70
2023/05/06 03:42:53;;;;;;;14.50;7.15;;;10.90;99.90;;;;;;5089757;28;20428;-71
2023/05/06 03:45:19;;;;;;;13.55;8.00;;;11.00;99.90;;;;;;5089770;28;20045;-71
2023/05/06 03:47:50;;;;;;;18.92;8.13;;;11.00;99.90;;;;;;5086467;28;20024;-72
2023/05/06 03:50:22;;;;;;;17.40;8.60;;;11.00;99.90;;;;;;5084940;28;20032;-74
2023/05/06 03:52:54;;;;;;;16.38;7.30;;;11.00;99.90;;;;;;5095341;28;20544;-71
2023/05/06 03:55:19;;;;;;;15.43;8.10;;;11.00;99.90;;;;;;5089072;27;20519;-72
2023/05/06 03:57:45;;;;;;;14.95;7.70;;;11.00;99.90;;;;;;5086607;28;20043;-72
2023/05/06 04:00:11;;;;;;;18.00;8.70;;;11.00;99.90;;;;;;5088046;28;20031;-72
2023/05/06 04:02:37;;;;;;;16.10;8.43;;;11.00;99.90;;;;;;5090154;28;20042;-72
2023/05/06 04:05:02;;;;;;;14.85;7.55;;;11.00;99.90;;;;;;5089272;28;20036;-71
2023/05/06 04:07:31;;;;;;;13.13;7.28;;;11.00;99.90;;;;;;5089859;28;20024;-71
2023/05/06 04:09:57;;;;;;;16.33;7.93;;;11.00;99.90;;;;;;5093078;28;20078;-72
2023/05/06 04:12:22;;;;;;;15.15;7.47;;;11.00;99.90;;;;;;5087380;28;20182;-71
2023/05/06 04:14:48;;;;;;;13.73;7.85;;;11.00;99.90;;;;;;5087871;28;20046;-72
2023/05/06 04:17:16;;;;;;;19.15;9.07;;;10.90;99.90;;;;;;5095229;28;20032;-72
2023/05/06 04:19:42;;;;;;;13.15;7.55;;;11.00;99.90;;;;;;5089071;28;20028;-72
2023/05/06 04:22:10;;;;;;;19.23;8.73;;;11.00;99.90;;;;;;5095575;28;20484;-74
2023/05/06 04:24:36;;;;;;;14.25;7.55;;;11.00;99.90;;;;;;5094861;28;20190;-72
2023/05/06 04:27:05;;;;;;;15.63;7.90;;;11.10;99.90;;;;;;5085414;28;20126;-70
2023/05/06 04:29:30;;;;;;;21.77;8.80;;;11.10;99.90;;;;;;5086059;28;20036;-74
2023/05/06 04:31:56;;;;;;;17.95;7.35;;;11.20;99.90;;;;;;5086619;28;20537;-72
2023/05/06 04:34:23;;;;;;;13.82;6.80;;;11.30;99.90;;;;;;5087874;28;20036;-71
2023/05/06 04:36:49;;;;;;;20.00;7.65;;;11.30;99.90;;;;;;5086365;28;20036;-73
2023/05/06 04:39:19;;;;;;;12.75;6.88;;;11.40;99.90;;;;;;5092668;28;20119;-71
2023/05/06 04:41:44;;;;;;;16.98;7.55;;;11.40;99.90;;;;;;5100542;28;20062;-71
2023/05/06 04:44:13;;;;;;;13.07;7.00;;;11.50;99.90;;;;;;5096112;28;20063;-71
2023/05/06 04:46:39;;;;;;;15.55;7.03;;;11.60;99.90;;;;;;5095057;28;20034;-72
2023/05/06 04:49:10;;;;;;;10.32;6.25;;;11.60;99.90;;;;;;5084126;28;20016;-72
2023/05/06 04:51:36;;;;;;;12.05;6.72;;;11.70;99.90;;;;;;5084244;28;20056;-72
2023/05/06 04:54:04;;;;;;;9.98;6.10;;;11.80;99.90;;;;;;5089046;28;20451;-73
2023/05/06 04:56:30;;;;;;;14.43;7.10;;;11.80;99.90;;;;;;5088375;28;20496;-73
2023/05/06 04:58:59;;;;;;;11.65;6.65;;;11.80;99.90;;;;;;5086553;28;20024;-73
2023/05/06 05:01:25;;;;;;;14.80;6.80;;;11.80;99.90;;;;;;5085343;28;20036;-73
2023/05/06 05:03:50;;;;;;;11.35;6.60;;;11.90;99.90;;;;;;5084759;28;20032;-72
2023/05/06 05:06:16;;;;;;;11.38;6.25;;;11.90;99.90;;;;;;5087284;28;20032;-72
2023/05/06 05:08:41;;;;;;;14.18;6.75;;;12.00;99.90;;;;;;5086636;28;20113;-72
2023/05/06 05:11:10;;;;;;;10.60;6.15;;;12.10;99.90;;;;;;5085226;28;20777;-73
2023/05/06 05:13:36;;;;;;;12.10;6.35;;;12.20;99.90;;;;;;5084993;28;20035;-73
2023/05/06 05:16:02;;;;;;;14.68;6.40;;;12.20;99.90;;;;;;5086028;28;20032;-72
2023/05/06 05:18:28;;;;;;;11.55;5.82;;;12.30;99.90;;;;;;5084548;28;20048;-72
2023/05/06 05:20:56;;;;;;;11.82;5.85;;;12.30;99.90;;;;;;5088990;28;20036;-72
2023/05/06 05:23:22;;;;;;;12.68;6.60;;;12.40;99.90;;;;;;5085504;28;20055;-72
2023/05/06 05:25:47;;;;;;;12.68;5.43;;;12.50;99.90;;;;;;5084602;28;20060;-70
2023/05/06 05:28:13;;;;;;;11.25;6.13;;;12.50;99.90;;;;;;5088111;28;20496;-72
2023/05/06 05:30:41;;;;;;;11.38;5.68;;;12.40;99.90;;;;;;5087281;28;20028;-72
2023/05/06 05:33:07;;;;;;;10.95;5.60;;;12.50;99.90;;;;;;5080614;28;20046;-72
2023/05/06 05:35:35;;;;;;;11.85;6.15;;;12.50;99.90;;;;;;5083885;28;20378;-73
2023/05/06 05:38:01;;;;;;;12.98;6.90;;;12.50;99.90;;;;;;5086752;28;20059;-72
2023/05/06 05:40:26;;;;;;;14.05;6.30;;;12.50;99.90;;;;;;5089117;28;20051;-71
2023/05/06 05:42:54;;;;;;;11.52;6.15;;;12.50;99.90;;;;;;5090172;28;20028;-71
2023/05/06 05:45:22;;;;;;;12.70;5.93;;;12.60;99.90;;;;;;5088177;28;20048;-72
2023/05/06 05:47:48;;;;;;;12.70;5.43;;;12.60;99.90;;;;;;5085232;28;20048;-72
2023/05/06 05:50:13;;;;;;;9.75;5.68;;;12.70;99.90;;;;;;5083855;28;20037;-72
2023/05/06 05:52:39;;;;;;;13.38;6.00;;;12.80;99.90;;;;;;5085002;28;20085;-71
2023/05/06 05:55:05;;;;;;;9.95;5.72;;;12.80;99.90;;;;;;5083353;28;20438;-73
2023/05/06 05:57:31;;;;;;;10.77;5.25;;;12.90;99.90;;;;;;5087649;28;20040;-73
2023/05/06 05:59:57;;;;;;;9.52;6.03;;;12.90;99.90;;;;;;5095009;28;20053;-71
2023/05/06 06:02:22;;;;;;;13.05;6.00;;;13.00;99.90;;;;;;5087700;28;20127;-71
2023/05/06 06:04:48;;;;;;;13.15;5.78;;;13.10;99.90;;;;;;5092616;28;20084;-72
2023/05/06 06:07:14;;;;;;;11.20;5.15;;;13.20;99.90;;;;;;5092505;28;20035;-73
2023/05/06 06:09:45;;;;;;;9.57;5.30;;;13.30;99.90;;;;;;5089200;28;20036;-72
2023/05/06 06:12:11;;;;;;;9.93;5.57;;;13.40;99.90;;;;;;5088456;28;20376;-70
2023/05/06 06:14:39;;;;;;;12.32;5.90;;;13.50;99.90;;;;;;5090656;28;20114;-72
2023/05/06 06:17:05;;;;;;;10.40;5.00;;;13.60;99.90;;;;;;5088483;28;20074;-70
2023/05/06 06:19:30;;;;;;;12.30;5.55;;;13.70;99.90;;;;;;5092271;28;20051;-72
2023/05/06 06:21:59;;;;;;;9.40;5.00;;;13.80;99.90;;;;;;5091183;28;20428;-72
2023/05/06 06:24:25;;;;;;;11.05;5.35;;;13.90;99.90;;;;;;5095580;28;20039;-72
2023/05/06 06:26:50;;;;;;;13.48;5.65;;;14.00;99.90;;;;;;5094858;28;20158;-72
2023/05/06 06:29:16;;;;;;;10.30;5.57;;;14.10;99.90;;;;;;5081854;28;20039;-72
2023/05/06 06:31:41;;;;;;;12.70;5.55;;;14.30;99.90;;;;;;5088521;28;20024;-72
2023/05/06 06:34:08;;;;;;;8.25;5.07;;;14.40;99.90;;;;;;5089447;28;20032;-72
2023/05/06 06:36:34;;;;;;;10.38;5.78;;;14.50;99.90;;;;;;5090301;28;20047;-71
2023/05/06 06:38:59;;;;;;;8.93;5.22;;;14.80;99.90;;;;;;5088654;28;20089;-72
2023/05/06 06:41:26;;;;;;;10.20;4.97;;;14.90;99.90;;;;;;5086035;28;20028;-73
2023/05/06 06:43:52;;;;;;;10.65;5.40;;;15.10;99.90;;;;;;5088765;28;20028;-71
2023/05/06 06:46:18;;;;;;;10.13;5.40;;;15.40;99.90;;;;;;5089402;28;20674;-72
2023/05/06 06:48:43;;;;;;;7.97;4.57;;;15.80;99.90;;;;;;5081963;28;20032;-72
2023/05/06 06:51:09;;;;;;;6.25;3.78;;;16.20;99.90;;;;;;5088625;28;20047;-75
2023/05/06 06:53:35;;;;;;;11.13;5.07;;;16.50;99.90;;;;;;5088382;28;20480;-73
2023/05/06 06:56:00;;;;;;;8.95;4.47;;;16.70;99.90;;;;;;5086722;28;20086;-73
2023/05/06 06:58:28;;;;;;;6.00;3.28;;;17.20;99.90;;;;;;5087283;28;20040;-71
2023/05/06 07:00:57;;;;;;;8.68;4.78;;;17.90;99.90;;;;;;5090164;28;20124;-74
2023/05/06 07:03:23;;;;;;;9.88;4.15;;;18.60;99.90;;;;;;5091137;28;20036;-72
2023/05/06 07:05:49;;;;;;;6.60;3.88;;;19.10;99.90;;;;;;5086841;28;20047;-72
2023/05/06 07:08:15;;;;;;;6.72;3.97;;;19.00;99.90;;;;;;5092608;28;20039;-73
2023/05/06 07:10:41;;;;;;;10.80;4.30;;;18.80;99.90;;;;;;5086256;28;20039;-72
2023/05/06 07:13:07;;;;;;;5.32;3.65;;;18.40;99.90;;;;;;5086001;28;20059;-73
2023/05/06 07:15:32;;;;;;;6.28;3.92;;;18.10;99.90;;;;;;5088129;28;20032;-71
2023/05/06 07:17:58;;;;;;;6.25;3.78;;;17.80;99.90;;;;;;5084893;28;20043;-72
2023/05/06 07:20:23;;;;;;;7.07;3.70;;;17.60;99.90;;;;;;5085933;28;20074;-71
2023/05/06 07:22:49;;;;;;;10.75;5.05;;;17.50;99.90;;;;;;5086686;28;20020;-73
2023/05/06 07:25:14;;;;;;;9.00;4.43;;;17.30;99.90;;;;;;5086290;28;20479;-72
2023/05/06 07:27:40;;;;;;;6.95;4.57;;;17.30;99.90;;;;;;5088938;28;20036;-72
2023/05/06 07:30:06;;;;;;;9.23;4.88;;;17.20;99.90;;;;;;5084243;28;20024;-71
2023/05/06 07:32:32;;;;;;;8.43;4.60;;;17.10;99.90;;;;;;5088733;28;20028;-73
2023/05/06 07:34:58;;;;;;;8.80;4.65;;;17.10;99.90;;;;;;5086236;28;20043;-72
2023/05/06 07:37:23;;;;;;;9.73;5.00;;;17.10;99.90;;;;;;5086750;28;24735;-72
2023/05/06 07:39:49;;;;;;;9.80;5.03;;;17.00;99.90;;;;;;5085405;28;20543;-72
2023/05/06 07:42:15;;;;;;;9.60;5.70;;;17.00;99.90;;;;;;5084073;28;20028;-72
2023/05/06 07:44:40;;;;;;;9.93;5.15;;;17.00;99.90;;;;;;5083683;28;20122;-71
2023/05/06 07:47:06;;;;;;;13.20;5.72;;;17.10;99.90;;;;;;5083536;28;20028;-72
2023/05/06 07:49:33;;;;;;;8.65;5.10;;;17.00;99.90;;;;;;5083655;28;20044;-72
2023/05/06 07:51:58;;;;;;;12.18;5.88;;;17.10;99.90;;;;;;5087730;28;20085;-72
2023/05/06 07:54:24;;;;;;;10.48;5.85;;;17.30;99.90;;;;;;5089669;28;20039;-74
2023/05/06 07:56:50;;;;;;;11.95;5.78;;;17.40;99.90;;;;;;5085119;28;20492;-73
2023/05/06 07:59:15;;;;;;;11.35;5.90;;;17.40;99.90;;;;;;5086207;28;20516;-73
2023/05/06 08:01:41;;;;;;;9.88;5.55;;;17.80;99.90;;;;;;5086085;28;20310;-74
2023/05/06 08:04:06;;;;;;;14.73;6.20;;;18.00;99.90;;;;;;5085896;28;20031;-73
2023/05/06 08:06:32;;;;;;;9.95;5.82;;;18.30;99.90;;;;;;5086666;28;20085;-73
2023/05/06 08:08:58;;;;;;;11.52;5.80;;;18.50;99.90;;;;;;5088587;28;20059;-73
2023/05/06 08:11:24;;;;;;;10.57;6.07;;;18.40;99.90;;;;;;5088555;28;20567;-73
2023/05/06 08:13:49;;;;;;;11.52;5.95;;;18.60;99.90;;;;;;5088629;28;20046;-71
2023/05/06 08:16:15;;;;;;;11.70;6.55;;;18.80;99.90;;;;;;5082458;28;20028;-72
2023/05/06 08:18:40;;;;;;;13.57;6.72;;;19.00;99.90;;;;;;5082773;28;20122;-73
2023/05/06 08:21:06;;;;;;;13.73;7.10;;;19.10;99.90;;;;;;5084396;28;20035;-71
2023/05/06 08:23:32;;;;;;;12.82;7.40;;;19.20;99.90;;;;;;5086623;28;20056;-74
2023/05/06 08:25:58;;;;;;;16.17;7.35;;;19.20;99.90;;;;;;5085079;28;20024;-71
2023/05/06 08:28:24;;;;;;;13.73;7.15;;;19.40;99.90;;;;;;5083311;28;20131;-70
2023/05/06 08:30:51;;;;;;;16.00;6.30;;;19.50;99.90;;;;;;5084575;28;20107;-72
2023/05/06 08:33:17;;;;;;;12.15;6.40;;;19.60;99.90;;;;;;5081656;28;20032;-71
2023/05/06 08:35:43;;;;;;;10.32;5.10;;;19.70;99.90;;;;;;5083061;28;20032;-70
2023/05/06 08:38:09;;;;;;;15.85;7.68;;;19.70;99.90;;;;;;5081864;28;20036;-71
2023/05/06 08:40:41;;;;;;;14.63;6.15;;;19.60;99.90;;;;;;5082569;28;20035;-72
2023/05/06 08:43:12;;;;;;;12.27;5.50;;;19.60;99.90;;;;;;5083645;28;20095;-72
2023/05/06 08:45:37;;;;;;;17.45;6.65;;;19.80;99.90;;;;;;5115470;27;20089;-73
2023/05/06 08:48:03;;;;;;;12.63;6.95;;;19.80;99.90;;;;;;5084897;28;20036;-73
2023/05/06 08:50:29;;;;;;;18.35;7.32;;;19.80;99.90;;;;;;5088989;28;20047;-71
2023/05/06 08:52:54;;;;;;;13.82;7.15;;;20.00;99.90;;;;;;5083624;28;20103;-71
2023/05/06 08:55:23;;;;;;;15.52;7.38;;;20.00;99.90;;;;;;5084208;28;20044;-73
2023/05/06 08:57:51;;;;;;;16.40;7.72;;;19.80;99.90;;;;;;5082308;28;20032;-72
2023/05/06 09:00:17;;;;;;;18.98;6.65;;;19.90;99.90;;;;;;5084716;28;20426;-71
2023/05/06 09:02:44;;;;;;;15.13;7.53;;;19.70;99.90;;;;;;5085274;28;20131;-74
2023/05/06 09:05:10;;;;;;;13.88;7.72;;;19.70;99.90;;;;;;5087457;28;20115;-74
2023/05/06 09:07:36;;;;;;;13.10;6.70;;;19.60;99.90;;;;;;5084347;28;20770;-71
2023/05/06 09:10:12;;;;;;;14.32;6.85;;;19.60;99.90;;;;;;5083542;28;20036;-73
2023/05/06 09:12:38;;;;;;;15.75;7.28;;;19.70;99.90;;;;;;5081597;28;20419;-72
2023/05/06 09:15:04;;;;;;;17.30;7.32;;;19.90;99.90;;;;;;5082463;28;20043;-73
2023/05/06 09:17:31;;;;;;;14.07;7.80;;;20.00;99.90;;;;;;5084826;28;20638;-72
2023/05/06 09:19:57;;;;;;;15.02;7.25;;;20.10;99.90;;;;;;5084724;28;20051;-71
2023/05/06 09:22:25;;;;;;;15.02;7.47;;;20.20;99.90;;;;;;5087306;28;20146;-72
2023/05/06 09:24:55;;;;;;;13.77;7.10;;;20.40;99.90;;;;;;5081879;28;20504;-71
2023/05/06 09:27:31;;;;;;;18.08;8.02;;;20.40;99.90;;;;;;5082270;28;20039;-72
2023/05/06 09:30:05;;;;;;;20.13;6.80;;;20.50;99.90;;;;;;5083382;28;20024;-71
2023/05/06 09:32:32;;;;;;;14.35;6.68;;;20.60;99.90;;;;;;5078413;28;20644;-70
2023/05/06 09:34:58;;;;;;;14.60;6.63;;;20.60;99.90;;;;;;5084745;28;20027;-72
2023/05/06 09:37:27;;;;;;;10.57;4.85;;;20.70;99.90;;;;;;5082425;28;20024;-72
2023/05/06 09:39:55;;;;;;;14.20;4.72;;;20.70;99.90;;;;;;5083259;28;20020;-70
2023/05/06 09:42:25;;;;;;;11.20;4.60;;;20.70;99.90;;;;;;5082451;28;20121;-71
2023/05/06 09:44:53;;;;;;;6.45;3.38;;;20.80;99.90;;;;;;5085967;28;20039;-73
2023/05/06 09:47:21;;;;;;;8.40;3.65;;;20.80;99.90;;;;;;5086427;28;20519;-72
2023/05/06 09:49:47;;;;;;;7.30;3.28;;;20.80;99.90;;;;;;5086469;28;20119;-71
2023/05/06 09:52:12;;;;;;;9.27;4.00;;;20.70;99.90;;;;;;5085343;28;20123;-72
2023/05/06 09:54:39;;;;;;;9.35;3.53;;;20.60;99.90;;;;;;5083792;28;20605;-72
2023/05/06 09:57:06;;;;;;;6.47;3.53;;;20.70;99.90;;;;;;5087070;28;20028;-74
2023/05/06 09:59:32;;;;;;;8.65;3.63;;;20.70;99.90;;;;;;5083571;28;20016;-71
2023/05/06 10:01:58;;;;;;;11.88;3.28;;;20.80;99.90;;;;;;5087234;28;20035;-72
2023/05/06 10:04:26;;;;;;;8.00;2.97;;;20.80;99.90;;;;;;5085693;28;20024;-72
2023/05/06 10:06:55;;;;;;;10.00;4.22;;;20.90;99.90;;;;;;5084491;28;20020;-71
2023/05/06 10:09:22;;;;;;;10.23;3.63;;;20.90;99.90;;;;;;5082670;28;20507;-73
2023/05/06 10:11:50;;;;;;;10.82;4.45;;;21.00;99.90;;;;;;5085974;28;20036;-71
2023/05/06 10:14:17;;;;;;;6.40;4.03;;;21.10;99.90;;;;;;5083623;28;20098;-72
2023/05/06 10:16:53;;;;;;;7.97;4.05;;;21.20;99.90;;;;;;5085103;28;20056;-71
2023/05/06 10:19:23;;;;;;;9.40;5.28;;;21.30;99.90;;;;;;5080856;28;20055;-71
2023/05/06 10:21:56;;;;;;;8.15;4.47;;;21.30;99.90;;;;;;5082593;28;20063;-71
2023/05/06 10:24:31;;;;;;;12.00;4.72;;;21.20;99.90;;;;;;5083264;28;20036;-71
2023/05/06 10:26:57;;;;;;;10.38;5.22;;;21.00;99.90;;;;;;5083426;28;20508;-71
2023/05/06 10:29:26;;;;;;;8.57;4.13;;;20.80;99.90;;;;;;5088596;28;20044;-71
2023/05/06 10:31:56;;;;;;;11.45;4.60;;;20.70;99.90;;;;;;5081751;28;20499;-72
2023/05/06 10:34:27;;;;;;;10.70;4.40;;;20.60;99.90;;;;;;5086506;28;20032;-70
2023/05/06 10:36:58;;;;;;;8.60;4.05;;;20.70;99.90;;;;;;5084153;28;20043;-71
2023/05/06 10:39:24;;;;;;;9.40;4.22;;;20.70;99.90;;;;;;5086503;28;20037;-74
2023/05/06 10:41:53;;;;;;;9.57;3.92;;;20.70;99.90;;;;;;5086838;28;20458;-71
2023/05/06 10:44:56;;;;;;;8.93;3.55;;;21.00;99.90;;;;;;5079735;28;20040;-72
2023/05/06 10:47:26;;;;;;;9.23;3.17;;;21.10;99.90;;;;;;5087435;28;20039;-72
2023/05/06 10:50:17;;;;;;;6.28;2.97;;;21.20;99.90;;;;;;5092628;28;20127;-71
2023/05/06 10:52:44;;;;;;;9.02;3.13;;;21.30;99.90;;;;;;5089587;28;20040;-70
2023/05/06 10:55:48;;;;;;;7.90;3.13;;;21.60;99.90;;;;;;5089172;28;20424;-71
2023/05/06 10:58:15;;;;;;;6.45;2.78;;;21.90;99.90;;;;;;5075594;28;20044;-71
2023/05/06 11:00:41;;;;;;;7.18;3.30;;;22.20;99.90;;;;;;5089583;28;20111;-70
2023/05/06 11:03:10;;;;;;;9.77;3.03;;;22.40;99.90;;;;;;5087743;28;20032;-71
2023/05/06 11:05:51;;;;;;;4.10;2.05;;;22.50;99.90;;;;;;5086083;28;20124;-72
2023/05/06 11:08:25;;;;;;;6.60;3.20;;;22.50;99.90;;;;;;5083567;28;20036;-73
2023/05/06 11:10:51;;;;;;;4.50;2.83;;;22.50;99.90;;;;;;5087120;28;20039;-71
2023/05/06 11:13:24;;;;;;;5.78;2.70;;;22.60;99.90;;;;;;5087665;28;20032;-73
2023/05/06 11:15:57;;;;;;;4.60;2.50;;;22.70;99.90;;;;;;5088827;28;20088;-73
2023/05/06 11:18:30;;;;;;;6.72;2.42;;;22.70;99.90;;;;;;5085315;28;20071;-70
2023/05/06 11:21:02;;;;;;;4.80;2.90;;;22.50;99.90;;;;;;5090328;28;20114;-71
2023/05/06 11:23:48;;;;;;;5.80;2.78;;;22.60;99.90;;;;;;5089237;28;20399;-71
2023/05/06 11:26:14;;;;;;;4.75;2.90;;;22.60;99.90;;;;;;5093162;28;20036;-72
2023/05/06 11:28:46;;;;;;;6.43;2.75;;;22.50;99.90;;;;;;5090122;28;20043;-71
2023/05/06 11:31:12;;;;;;;6.32;3.10;;;22.50;99.90;;;;;;5094899;28;20434;-71
2023/05/06 11:33:45;;;;;;;7.20;3.47;;;22.50;99.90;;;;;;5088100;28;20039;-72
2023/05/06 11:36:15;;;;;;;5.72;2.70;;;22.40;99.90;;;;;;5093698;27;20052;-72
2023/05/06 11:38:48;;;;;;;4.47;2.30;;;22.50;99.90;;;;;;5089806;28;20036;-73
2023/05/06 11:41:15;;;;;;;5.28;2.45;;;22.60;99.90;;;;;;5084186;28;20188;-72
2023/05/06 11:43:51;;;;;;;5.35;2.70;;;22.70;99.90;;;;;;5091649;28;20110;-72
2023/05/06 11:46:22;;;;;;;5.63;2.85;;;22.60;99.90;;;;;;5088550;28;20402;-73
2023/05/06 11:48:51;;;;;;;5.60;2.90;;;22.50;99.90;;;;;;5096224;28;20383;-71
2023/05/06 11:51:21;;;;;;;5.45;3.03;;;22.30;99.90;;;;;;5090290;28;20040;-72
2023/05/06 11:53:47;;;;;;;6.40;3.17;;;22.20;99.90;;;;;;5087810;28;20087;-73
2023/05/06 11:56:13;;;;;;;7.40;3.70;;;22.10;99.90;;;;;;5095027;28;20078;-71
2023/05/06 11:58:45;;;;;;;6.53;2.67;;;22.10;99.90;;;;;;5090921;28;20051;-71
2023/05/06 12:01:11;;;;;;;7.05;2.63;;;21.90;99.90;;;;;;5093209;27;20036;-72
2023/05/06 12:03:36;;;;;;;3.53;1.90;;;22.00;99.90;;;;;;5093745;28;20047;-72
2023/05/06 12:06:02;;;;;;;3.45;1.52;;;22.10;99.90;;;;;;5096984;27;20055;-71
2023/05/06 12:08:35;;;;;;;2.33;1.50;;;22.10;99.70;;;;;;5099464;27;20032;-70
2023/05/06 12:11:04;;;;;;;5.10;1.60;;;22.30;99.90;;;;;;5091455;28;20028;-72
2023/05/06 12:13:30;;;;;;;4.80;1.77;;;22.40;99.90;;;;;;5095194;28;20157;-71
2023/05/06 12:15:58;;;;;;;3.85;1.80;;;22.20;98.50;;;;;;5093105;28;20111;-71
2023/05/06 12:18:24;;;;;;;4.78;2.42;;;22.20;99.40;;;;;;5088414;28;20448;-72
2023/05/06 12:20:56;;;;;;;3.80;2.00;;;22.20;99.30;;;;;;5088051;28;20051;-72
2023/05/06 12:23:25;;;;;;;4.97;1.88;;;22.20;99.90;;;;;;5093323;27;20530;-72
2023/05/06 12:26:04;;;;;;;3.58;1.80;;;22.20;99.90;;;;;;5083298;28;20031;-71
2023/05/06 12:28:35;;;;;;;3.47;1.60;;;22.20;99.90;;;;;;5092523;28;20048;-71
2023/05/06 12:31:20;;;;;;;8.57;2.17;;;22.20;99.90;;;;;;5091820;28;20031;-71
2023/05/06 12:33:48;;;;;;;5.15;2.13;;;22.30;99.90;;;;;;5092079;28;20115;-72
2023/05/06 12:36:14;;;;;;;3.90;2.22;;;22.40;99.90;;;;;;5093031;28;20073;-72
2023/05/06 12:38:52;;;;;;;6.82;1.95;;;22.50;99.90;;;;;;5095444;28;20035;-72
2023/05/06 12:41:22;;;;;;;2.38;1.13;;;22.60;99.70;;;;;;5090875;28;20105;-72
2023/05/06 12:43:48;;;;;;;3.85;1.35;;;22.50;98.20;;;;;;5096185;28;20076;-72
2023/05/06 12:46:15;;;;;;;3.97;0.93;;;22.50;97.80;;;;;;5089150;28;20349;-72